createdAt,value
2018-07-23T05:18:20.516Z,20
2018-07-23T05:18:40.673Z,20
2018-07-23T05:19:00.831Z,25
2018-07-23T05:19:20.997Z,25
2018-07-23T05:19:41.144Z,25
2018-07-23T05:20:01.308Z,25
2018-07-23T05:20:21.474Z,25
2018-07-23T05:20:41.628Z,25
2018-07-23T05:21:01.776Z,25
2018-07-23T05:21:21.928Z,25
2018-07-23T05:21:42.109Z,25
2018-07-23T05:22:02.278Z,25
2018-07-23T05:22:22.437Z,20
2018-07-23T05:22:42.595Z,20
2018-07-23T05:23:02.788Z,20
2018-07-23T05:23:22.934Z,20
2018-07-23T05:23:43.085Z,20
2018-07-23T05:24:03.286Z,20
2018-07-23T05:24:23.483Z,20
2018-07-23T05:24:43.665Z,20
2018-07-23T05:25:03.805Z,20
2018-07-23T05:25:23.958Z,20
2018-07-23T05:25:44.119Z,20
2018-07-23T05:26:04.343Z,20
2018-07-23T05:26:24.665Z,20
2018-07-23T05:26:44.816Z,20
2018-07-23T05:27:04.958Z,20
2018-07-23T05:27:25.105Z,20
2018-07-23T05:27:45.247Z,20
2018-07-23T05:28:05.381Z,20
2018-07-23T05:28:25.540Z,20
2018-07-23T05:28:45.701Z,20
2018-07-23T05:29:05.868Z,20
2018-07-23T05:29:26.001Z,20
2018-07-23T05:29:46.156Z,20
2018-07-23T05:30:06.337Z,20
2018-07-23T05:30:26.495Z,20
2018-07-23T05:30:46.675Z,20
2018-07-23T05:31:06.839Z,20
2018-07-23T05:31:26.979Z,20
2018-07-23T05:31:47.141Z,20
2018-07-23T05:32:07.287Z,20
2018-07-23T05:32:27.450Z,20
2018-07-23T05:32:47.600Z,20
2018-07-23T05:33:07.758Z,20
2018-07-23T05:33:27.898Z,20
2018-07-23T05:45:30.862Z,30
2018-07-23T05:45:51.021Z,30
2018-07-23T05:46:11.157Z,30
2018-07-23T05:46:31.306Z,30
2018-07-23T05:46:51.442Z,30
2018-07-23T05:47:11.622Z,30
2018-07-23T05:47:31.788Z,30
2018-07-23T05:47:51.957Z,30
2018-07-23T05:48:12.136Z,30
2018-07-23T05:48:32.299Z,30
2018-07-23T05:48:52.451Z,30
2018-07-23T05:49:12.600Z,30
2018-07-23T05:49:32.725Z,30
2018-07-23T05:49:52.864Z,30
2018-07-23T05:50:13.036Z,30
2018-07-23T05:50:33.180Z,30
2018-07-23T05:50:53.341Z,30
2018-07-23T05:51:13.492Z,30
2018-07-23T05:51:33.662Z,30
2018-07-23T05:51:53.809Z,30
2018-07-23T05:52:13.964Z,30
2018-07-23T05:52:34.123Z,30
2018-07-23T05:52:54.263Z,30
2018-07-23T05:53:14.423Z,30
2018-07-23T05:53:34.560Z,30
2018-07-23T05:53:54.713Z,30
2018-07-23T05:54:14.928Z,30
2018-07-23T05:54:35.084Z,30
2018-07-23T05:54:55.242Z,30
2018-07-23T05:55:15.418Z,30
2018-07-23T05:55:35.569Z,30
2018-07-23T05:55:55.737Z,30
2018-07-23T05:56:15.902Z,30
2018-07-23T05:56:36.065Z,30
2018-07-23T05:56:56.207Z,30
2018-07-23T05:57:16.364Z,30
2018-07-23T05:57:36.541Z,30
2018-07-23T05:57:56.675Z,30
2018-07-23T05:58:16.835Z,30
2018-07-23T05:58:36.970Z,30
2018-07-23T05:58:57.132Z,30
2018-07-23T05:59:17.294Z,30
2018-07-23T05:59:37.458Z,30
2018-07-23T05:59:57.611Z,30
2018-07-23T06:00:17.773Z,30
2018-07-23T06:00:37.926Z,30
2018-07-23T06:00:58.067Z,30
2018-07-23T06:01:18.239Z,30
2018-07-23T06:01:38.368Z,30
2018-07-23T06:01:58.534Z,30
2018-07-23T06:02:18.699Z,30
2018-07-23T06:02:38.898Z,30
2018-07-23T06:02:59.056Z,30
2018-07-23T06:03:19.212Z,30
2018-07-23T06:03:39.423Z,30
2018-07-23T06:03:59.666Z,35
2018-07-23T06:04:19.814Z,35
2018-07-23T06:04:39.964Z,35
2018-07-23T06:05:00.136Z,35
2018-07-23T06:05:20.297Z,35
2018-07-23T06:05:40.461Z,35
2018-07-23T06:06:00.617Z,35
2018-07-23T06:06:20.789Z,35
2018-07-23T06:06:41.138Z,35
2018-07-23T06:07:01.582Z,35
2018-07-23T06:07:21.849Z,35
2018-07-23T06:07:41.984Z,35
2018-07-23T06:08:02.136Z,35
2018-07-23T06:08:22.307Z,35
2018-07-23T06:08:42.465Z,35
2018-07-23T06:09:02.606Z,35
2018-07-23T06:09:22.769Z,35
2018-07-23T06:09:42.912Z,35
2018-07-23T06:10:03.088Z,35
2018-07-23T06:10:23.244Z,35
2018-07-23T06:10:43.409Z,35
2018-07-23T06:11:03.556Z,35
2018-07-23T06:11:23.727Z,35
2018-07-23T06:11:43.926Z,35
2018-07-23T06:12:04.056Z,35
2018-07-23T06:12:24.197Z,35
2018-07-23T06:12:44.356Z,35
2018-07-23T06:13:04.549Z,35
2018-07-23T06:13:24.681Z,35
2018-07-23T06:13:44.846Z,40
2018-07-23T06:14:05.010Z,40
2018-07-23T06:14:25.177Z,40
2018-07-23T06:14:45.289Z,40
2018-07-23T06:15:05.458Z,40
2018-07-23T06:15:25.600Z,40
2018-07-23T06:15:45.744Z,40
2018-07-23T06:16:05.906Z,40
2018-07-23T06:16:26.048Z,40
2018-07-23T06:16:46.214Z,45
2018-07-23T06:17:06.373Z,45
2018-07-23T06:17:26.595Z,45
2018-07-23T06:17:46.754Z,45
2018-07-23T06:18:06.910Z,45
2018-07-23T06:18:27.068Z,45
2018-07-23T06:18:47.238Z,45
2018-07-23T06:19:07.389Z,45
2018-07-23T06:19:27.559Z,50
2018-07-23T06:19:47.711Z,50
2018-07-23T06:20:07.881Z,50
2018-07-23T06:20:28.036Z,50
2018-07-23T06:20:48.185Z,50
2018-07-23T06:21:08.339Z,55
2018-07-23T06:21:28.510Z,55
2018-07-23T06:21:48.682Z,55
2018-07-23T06:22:08.843Z,55
2018-07-23T06:22:29.018Z,55
2018-07-23T06:22:49.115Z,55
2018-07-23T06:23:09.261Z,55
2018-07-23T06:23:29.422Z,55
2018-07-23T06:23:49.629Z,55
2018-07-23T06:24:09.781Z,55
2018-07-23T06:24:29.947Z,55
2018-07-23T06:24:50.109Z,55
2018-07-23T06:25:10.261Z,55
2018-07-23T06:25:30.424Z,55
2018-07-23T06:25:50.694Z,55
2018-07-23T06:26:10.732Z,55
2018-07-23T06:26:30.875Z,55
2018-07-23T06:26:51.020Z,55
2018-07-23T06:27:11.178Z,55
2018-07-23T06:27:31.361Z,55
2018-07-23T06:27:51.514Z,55
2018-07-23T06:28:11.719Z,55
2018-07-23T06:28:31.877Z,55
2018-07-23T06:28:52.024Z,55
2018-07-23T06:29:12.184Z,55
2018-07-23T06:29:32.340Z,55
2018-07-23T06:29:52.516Z,50
2018-07-23T06:30:12.855Z,50
2018-07-23T06:30:32.894Z,50
2018-07-23T06:30:53.058Z,50
2018-07-23T06:31:13.247Z,50
2018-07-23T06:31:33.407Z,50
2018-07-23T06:31:53.576Z,50
2018-07-23T06:32:13.737Z,50
2018-07-23T06:32:33.927Z,50
2018-07-23T06:32:54.094Z,50
2018-07-23T06:33:14.273Z,50
2018-07-23T06:33:34.413Z,50
2018-07-23T06:33:54.609Z,50
2018-07-23T06:34:14.809Z,50
2018-07-23T06:34:34.941Z,50
2018-07-23T06:34:55.110Z,50
2018-07-23T06:35:15.281Z,45
2018-07-23T06:35:35.459Z,45
2018-07-23T06:35:55.634Z,45
2018-07-23T06:36:15.790Z,45
2018-07-23T06:36:35.966Z,50
2018-07-23T06:36:56.107Z,45
2018-07-23T06:37:16.238Z,50
2018-07-23T06:37:36.430Z,45
2018-07-23T06:37:56.574Z,45
2018-07-23T06:38:16.731Z,45
2018-07-23T06:38:36.897Z,50
2018-07-23T06:38:57.037Z,45
2018-07-23T06:39:17.170Z,45
2018-07-23T06:39:37.317Z,50
2018-07-23T06:39:57.466Z,50
2018-07-23T06:40:17.633Z,45
2018-07-23T06:40:37.806Z,45
2018-07-23T06:40:57.969Z,45
2018-07-23T06:41:18.127Z,45
2018-07-23T06:41:38.261Z,45
2018-07-23T06:41:58.425Z,45
2018-07-23T06:42:18.592Z,50
2018-07-23T06:42:38.764Z,50
2018-07-23T06:42:58.945Z,50
2018-07-23T06:43:19.144Z,45
2018-07-23T06:43:39.266Z,50
2018-07-23T06:43:59.422Z,50
2018-07-23T06:44:19.577Z,50
2018-07-23T06:44:39.743Z,50
2018-07-23T06:44:59.900Z,50
2018-07-23T06:45:20.056Z,50
2018-07-23T06:45:40.206Z,50
2018-07-23T06:46:00.376Z,50
2018-07-23T06:46:20.540Z,45
2018-07-23T06:46:40.721Z,45
2018-07-23T06:47:00.849Z,45
2018-07-23T06:47:20.957Z,50
2018-07-23T06:47:41.120Z,45
2018-07-23T06:48:01.279Z,45
2018-07-23T06:48:21.419Z,45
2018-07-23T06:48:41.622Z,45
2018-07-23T06:49:01.816Z,45
2018-07-23T06:49:21.928Z,45
2018-07-23T06:49:42.092Z,45
2018-07-23T06:50:02.249Z,45
2018-07-23T06:50:22.414Z,40
2018-07-23T06:50:42.605Z,45
2018-07-23T06:51:02.771Z,40
2018-07-23T06:51:22.918Z,45
2018-07-23T06:51:43.056Z,45
2018-07-23T06:52:03.219Z,45
2018-07-23T06:52:23.384Z,40
2018-07-23T06:52:43.551Z,45
2018-07-23T06:53:03.715Z,45
2018-07-23T06:53:23.880Z,45
2018-07-23T06:53:44.058Z,40
2018-07-23T06:54:04.237Z,40
2018-07-23T06:54:24.360Z,45
2018-07-23T06:54:44.527Z,40
2018-07-23T06:55:04.678Z,40
2018-07-23T06:55:24.835Z,40
2018-07-23T06:55:44.974Z,40
2018-07-23T06:56:05.116Z,40
2018-07-23T06:56:25.314Z,40
2018-07-23T06:56:45.566Z,40
2018-07-23T06:57:05.687Z,40
2018-07-23T06:57:25.918Z,40
2018-07-23T06:57:46.020Z,35
2018-07-23T06:58:06.147Z,35
2018-07-23T06:58:26.314Z,35
2018-07-23T06:58:46.524Z,35
2018-07-23T06:59:06.682Z,35
2018-07-23T06:59:26.855Z,35
2018-07-23T06:59:47.015Z,35
2018-07-23T07:00:07.197Z,35
2018-07-23T07:00:27.337Z,35
2018-07-23T07:00:47.579Z,35
2018-07-23T07:01:07.725Z,35
2018-07-23T07:01:27.898Z,35
2018-07-23T07:01:48.065Z,40
2018-07-23T07:02:08.228Z,35
2018-07-23T07:02:28.393Z,35
2018-07-23T07:02:48.574Z,35
2018-07-23T07:03:08.746Z,40
2018-07-23T07:03:28.896Z,35
2018-07-23T07:03:49.069Z,40
2018-07-23T07:04:09.225Z,40
2018-07-23T07:04:29.371Z,40
2018-07-23T07:04:49.543Z,40
2018-07-23T07:05:09.713Z,40
2018-07-23T07:05:29.867Z,40
2018-07-23T07:05:50.029Z,40
2018-07-23T07:06:10.175Z,40
2018-07-23T07:06:30.401Z,40
2018-07-23T07:06:50.535Z,40
2018-07-23T07:07:10.692Z,40
2018-07-23T07:07:30.867Z,40
2018-07-23T07:07:51.032Z,40
2018-07-23T07:08:11.193Z,40
2018-07-23T07:08:31.362Z,40
2018-07-23T07:08:51.515Z,40
2018-07-23T07:09:11.687Z,40
2018-07-23T07:09:31.845Z,40
2018-07-23T07:09:51.998Z,40
2018-07-23T07:10:12.189Z,40
2018-07-23T07:10:32.354Z,40
2018-07-23T07:10:52.541Z,40
2018-07-23T07:11:12.659Z,40
2018-07-23T07:11:32.824Z,40
2018-07-23T07:11:53.000Z,40
2018-07-23T07:12:13.197Z,40
2018-07-23T07:12:33.326Z,45
2018-07-23T07:12:53.477Z,45
2018-07-23T07:13:13.650Z,45
2018-07-23T07:13:33.906Z,45
2018-07-23T07:13:54.196Z,45
2018-07-23T07:14:14.360Z,45
2018-07-23T07:14:34.509Z,45
2018-07-23T07:14:54.650Z,45
2018-07-23T07:15:14.815Z,45
2018-07-23T07:15:34.957Z,45
2018-07-23T07:15:55.125Z,45
2018-07-23T07:16:15.278Z,50
2018-07-23T07:16:35.454Z,50
2018-07-23T07:16:55.598Z,50
2018-07-23T07:17:15.758Z,50
2018-07-23T07:17:35.915Z,50
2018-07-23T07:17:56.067Z,50
2018-07-23T07:18:16.230Z,50
2018-07-23T07:18:36.360Z,50
2018-07-23T07:18:56.507Z,50
2018-07-23T07:19:16.676Z,50
2018-07-23T07:19:36.832Z,50
2018-07-23T07:19:57.044Z,45
2018-07-23T07:20:17.165Z,50
2018-07-23T07:20:37.315Z,45
2018-07-23T07:20:57.488Z,45
2018-07-23T07:21:17.651Z,50
2018-07-23T07:21:37.806Z,50
2018-07-23T07:21:57.966Z,50
2018-07-23T07:22:18.113Z,50
2018-07-23T07:22:38.263Z,50
2018-07-23T07:22:58.421Z,50
2018-07-23T07:23:18.548Z,50
2018-07-23T07:23:38.702Z,50
2018-07-23T07:23:58.842Z,50
2018-07-23T07:24:18.984Z,50
2018-07-23T07:24:39.118Z,50
2018-07-23T07:24:59.248Z,50
2018-07-23T07:25:19.458Z,45
2018-07-23T07:25:39.574Z,45
2018-07-23T07:25:59.734Z,45
2018-07-23T07:26:19.865Z,45
2018-07-23T07:26:40.021Z,45
2018-07-23T07:27:00.175Z,45
2018-07-23T07:27:20.355Z,45
2018-07-23T07:27:40.495Z,45
2018-07-23T07:28:00.680Z,45
2018-07-23T07:28:20.845Z,50
2018-07-23T07:28:40.977Z,50
2018-07-23T07:29:01.147Z,50
2018-07-23T07:29:21.307Z,50
2018-07-23T07:29:41.474Z,50
2018-07-23T07:30:01.640Z,50
2018-07-23T07:30:21.772Z,50
2018-07-23T07:30:41.935Z,50
2018-07-23T07:31:02.090Z,50
2018-07-23T07:31:22.251Z,50
2018-07-23T07:31:42.404Z,50
2018-07-23T07:32:02.559Z,50
2018-07-23T07:32:22.759Z,55
2018-07-23T07:32:42.938Z,50
2018-07-23T07:33:03.102Z,55
2018-07-23T07:33:23.259Z,55
2018-07-23T07:33:43.420Z,55
2018-07-23T07:34:03.587Z,55
2018-07-23T07:34:23.739Z,55
2018-07-23T07:34:43.940Z,55
2018-07-23T07:35:04.093Z,55
2018-07-23T07:35:24.237Z,55
2018-07-23T07:35:44.394Z,55
2018-07-23T07:36:04.591Z,55
2018-07-23T07:36:24.761Z,55
2018-07-23T07:36:44.910Z,55
2018-07-23T07:37:05.086Z,55
2018-07-23T07:37:25.256Z,55
2018-07-23T07:37:45.424Z,50
2018-07-23T07:38:05.665Z,50
2018-07-23T07:38:25.764Z,50
2018-07-23T07:38:45.880Z,50
2018-07-23T07:39:06.035Z,50
2018-07-23T07:39:26.158Z,50
2018-07-23T07:39:46.330Z,50
2018-07-23T07:40:06.509Z,50
2018-07-23T07:40:26.662Z,50
2018-07-23T07:40:46.809Z,50
2018-07-23T07:41:06.946Z,50
2018-07-23T07:41:27.131Z,50
2018-07-23T07:41:47.283Z,50
2018-07-23T07:42:07.432Z,50
2018-07-23T07:42:27.577Z,50
2018-07-23T07:42:47.740Z,50
2018-07-23T07:43:07.876Z,50
2018-07-23T07:43:28.042Z,50
2018-07-23T07:43:48.203Z,55
2018-07-23T07:44:08.338Z,55
2018-07-23T07:44:28.499Z,55
2018-07-23T07:44:48.679Z,55
2018-07-23T07:45:08.835Z,50
2018-07-23T07:45:28.990Z,50
2018-07-23T07:45:49.169Z,55
2018-07-23T07:46:09.324Z,50
2018-07-23T07:46:29.602Z,55
2018-07-23T07:46:49.716Z,55
2018-07-23T07:47:09.863Z,55
2018-07-23T07:47:30.013Z,55
2018-07-23T07:47:50.157Z,55
2018-07-23T07:48:10.339Z,55
2018-07-23T07:48:30.470Z,55
2018-07-23T07:48:50.630Z,55
2018-07-23T07:49:10.794Z,55
2018-07-23T07:49:30.943Z,55
2018-07-23T07:49:51.122Z,55
2018-07-23T07:50:11.293Z,55
2018-07-23T07:50:31.431Z,55
2018-07-23T07:50:51.568Z,60
2018-07-23T07:51:11.727Z,60
2018-07-23T07:51:31.896Z,60
2018-07-23T07:51:52.057Z,60
2018-07-23T07:52:12.220Z,60
2018-07-23T07:52:32.396Z,60
2018-07-23T07:52:52.625Z,60
2018-07-23T07:53:12.775Z,55
2018-07-23T07:53:32.922Z,55
2018-07-23T07:53:53.046Z,55
2018-07-23T07:54:13.188Z,55
2018-07-23T07:54:33.329Z,50
2018-07-23T07:54:53.496Z,50
2018-07-23T07:55:13.650Z,50
2018-07-23T07:55:33.808Z,50
2018-07-23T07:55:53.977Z,50
2018-07-23T07:56:14.169Z,50
2018-07-23T07:56:34.286Z,45
2018-07-23T07:56:54.454Z,45
2018-07-23T07:57:14.598Z,45
2018-07-23T07:57:34.776Z,45
2018-07-23T07:57:54.928Z,45
2018-07-23T07:58:15.092Z,45
2018-07-23T07:58:35.227Z,45
2018-07-23T07:58:55.385Z,55
2018-07-23T07:59:15.551Z,45
2018-07-23T07:59:35.682Z,55
2018-07-23T07:59:55.850Z,55
2018-07-23T08:00:16.001Z,55
2018-07-23T08:00:36.152Z,55
2018-07-23T08:00:56.302Z,60
2018-07-23T08:01:16.466Z,60
2018-07-23T08:01:36.656Z,55
2018-07-23T08:01:56.844Z,55
2018-07-23T08:02:17.021Z,55
2018-07-23T08:02:37.210Z,50
2018-07-23T08:02:57.350Z,50
2018-07-23T08:03:17.528Z,55
2018-07-23T08:03:37.699Z,50
2018-07-23T08:03:57.846Z,50
2018-07-23T08:04:18.009Z,50
2018-07-23T08:04:38.144Z,50
2018-07-23T08:04:58.309Z,50
2018-07-23T08:05:18.458Z,50
2018-07-23T08:05:38.617Z,50
2018-07-23T08:05:58.772Z,50
2018-07-23T08:06:18.909Z,45
2018-07-23T08:06:39.071Z,45
2018-07-23T08:06:59.231Z,45
2018-07-23T08:07:19.452Z,45
2018-07-23T08:07:39.627Z,45
2018-07-23T08:07:59.767Z,45
2018-07-23T08:08:19.937Z,45
2018-07-23T08:08:40.078Z,40
2018-07-23T08:09:00.234Z,40
2018-07-23T08:09:20.399Z,40
2018-07-23T08:09:40.584Z,40
2018-07-23T08:10:00.749Z,40
2018-07-23T08:10:20.903Z,40
2018-07-23T08:10:41.069Z,40
2018-07-23T08:11:01.239Z,40
2018-07-23T08:11:21.371Z,40
2018-07-23T08:11:41.531Z,40
2018-07-23T08:12:01.684Z,40
2018-07-23T08:12:21.840Z,40
2018-07-23T08:12:41.993Z,40
2018-07-23T08:13:02.188Z,40
2018-07-23T08:13:22.346Z,40
2018-07-23T08:13:42.460Z,40
2018-07-23T08:14:02.552Z,40
2018-07-23T08:14:22.765Z,35
2018-07-23T08:14:42.899Z,35
2018-07-23T08:15:03.098Z,40
2018-07-23T08:15:23.244Z,40
2018-07-23T08:15:43.385Z,45
2018-07-23T08:16:03.563Z,45
2018-07-23T08:16:23.710Z,40
2018-07-23T08:16:43.855Z,40
2018-07-23T08:17:04.007Z,40
2018-07-23T08:17:24.157Z,40
2018-07-23T08:17:44.366Z,40
2018-07-23T08:18:04.767Z,40
2018-07-23T08:18:24.924Z,40
2018-07-23T08:18:45.074Z,40
2018-07-23T08:19:05.244Z,40
2018-07-23T08:19:25.413Z,40
2018-07-23T08:19:45.568Z,40
2018-07-23T08:20:05.723Z,40
2018-07-23T08:20:25.871Z,40
2018-07-23T08:20:46.041Z,40
2018-07-23T08:21:06.224Z,40
2018-07-23T08:21:26.383Z,40
2018-07-23T08:21:46.500Z,40
2018-07-23T08:22:06.647Z,40
2018-07-23T08:22:26.807Z,40
2018-07-23T08:22:46.975Z,40
2018-07-23T08:23:07.141Z,40
2018-07-23T08:23:27.293Z,40
2018-07-23T08:23:47.437Z,40
2018-07-23T08:24:07.611Z,40
2018-07-23T08:24:27.796Z,40
2018-07-23T08:24:47.957Z,40
2018-07-23T08:25:08.180Z,40
2018-07-23T08:25:28.269Z,45
2018-07-23T08:25:48.423Z,40
2018-07-23T08:26:08.597Z,40
2018-07-23T08:26:28.765Z,40
2018-07-23T08:26:48.917Z,40
2018-07-23T08:27:09.091Z,40
2018-07-23T08:27:29.250Z,40
2018-07-23T08:27:49.435Z,40
2018-07-23T08:28:09.614Z,40
2018-07-23T08:28:29.778Z,40
2018-07-23T08:28:49.923Z,40
2018-07-23T08:29:10.067Z,40
2018-07-23T08:29:30.214Z,40
2018-07-23T08:29:50.387Z,40
2018-07-23T08:30:10.572Z,40
2018-07-23T08:30:30.748Z,40
2018-07-23T08:30:50.924Z,40
2018-07-23T08:31:11.092Z,40
2018-07-23T08:31:31.217Z,40
2018-07-23T08:31:51.498Z,40
2018-07-23T08:32:11.644Z,40
2018-07-23T08:32:31.766Z,40
2018-07-23T08:32:51.901Z,40
2018-07-23T08:33:12.040Z,40
2018-07-23T08:33:32.192Z,40
2018-07-23T08:33:52.342Z,40
2018-07-23T08:34:12.495Z,40
2018-07-23T08:34:32.645Z,40
2018-07-23T08:34:52.777Z,40
2018-07-23T08:35:12.940Z,45
2018-07-23T08:35:33.076Z,45
2018-07-23T08:35:53.229Z,45
2018-07-23T08:36:13.391Z,45
2018-07-23T08:36:33.546Z,45
2018-07-23T08:36:53.707Z,45
2018-07-23T08:37:13.877Z,40
2018-07-23T08:37:34.037Z,45
2018-07-23T08:37:54.186Z,45
2018-07-23T08:38:14.344Z,40
2018-07-23T08:38:34.567Z,40
2018-07-23T08:38:54.709Z,40
2018-07-23T08:39:14.877Z,40
2018-07-23T08:39:35.029Z,40
2018-07-23T08:39:55.171Z,45
2018-07-23T08:40:15.365Z,45
2018-07-23T08:40:35.549Z,40
2018-07-23T08:40:55.797Z,45
2018-07-23T08:41:15.914Z,40
2018-07-23T08:41:36.064Z,40
2018-07-23T08:41:56.202Z,40
2018-07-23T08:42:16.337Z,40
2018-07-23T08:42:36.477Z,40
2018-07-23T08:42:56.654Z,40
2018-07-23T08:43:16.786Z,40
2018-07-23T08:43:36.951Z,40
2018-07-23T08:43:57.090Z,40
2018-07-23T08:44:17.274Z,40
2018-07-23T08:44:37.440Z,45
2018-07-23T08:44:57.617Z,45
2018-07-23T08:45:17.800Z,45
2018-07-23T08:45:37.942Z,45
2018-07-23T08:45:58.172Z,45
2018-07-23T08:46:18.320Z,45
2018-07-23T08:46:38.456Z,45
2018-07-23T08:46:58.627Z,45
2018-07-23T08:47:18.806Z,40
2018-07-23T08:47:38.979Z,45
2018-07-23T08:47:59.123Z,45
2018-07-23T08:48:19.306Z,45
2018-07-23T08:48:39.565Z,45
2018-07-23T08:48:59.695Z,45
2018-07-23T08:49:19.847Z,45
2018-07-23T08:49:40.017Z,45
2018-07-23T08:50:00.159Z,45
2018-07-23T08:50:20.338Z,45
2018-07-23T08:50:40.475Z,45
2018-07-23T08:51:00.631Z,45
2018-07-23T08:51:20.920Z,45
2018-07-23T08:51:41.011Z,45
2018-07-23T08:52:01.168Z,45
2018-07-23T08:52:21.365Z,45
2018-07-23T08:52:41.514Z,45
2018-07-23T08:53:01.660Z,45
2018-07-23T08:53:21.819Z,45
2018-07-23T08:53:41.973Z,45
2018-07-23T08:54:02.116Z,45
2018-07-23T08:54:22.285Z,45
2018-07-23T08:54:42.466Z,45
2018-07-23T08:55:02.601Z,40
2018-07-23T08:55:22.743Z,45
2018-07-23T08:55:42.902Z,45
2018-07-23T08:56:03.083Z,45
2018-07-23T08:56:23.236Z,45
2018-07-23T08:56:43.376Z,45
2018-07-23T08:57:03.563Z,45
2018-07-23T08:57:23.810Z,45
2018-07-23T08:57:44.071Z,45
2018-07-23T08:58:04.239Z,45
2018-07-23T08:58:24.414Z,45
2018-07-23T08:58:44.575Z,45
2018-07-23T08:59:04.731Z,45
2018-07-23T08:59:24.888Z,45
2018-07-23T08:59:45.054Z,45
2018-07-23T09:00:05.201Z,45
2018-07-23T09:00:25.360Z,45
2018-07-23T09:00:45.521Z,45
2018-07-23T09:01:05.657Z,40
2018-07-23T09:01:25.792Z,40
2018-07-23T09:01:45.944Z,45
2018-07-23T09:02:06.113Z,45
2018-07-23T09:02:26.287Z,45
2018-07-23T09:02:46.423Z,45
2018-07-23T09:03:06.569Z,45
2018-07-23T09:03:26.740Z,45
2018-07-23T09:03:46.901Z,45
2018-07-23T09:04:07.089Z,45
2018-07-23T09:04:27.237Z,45
2018-07-23T09:04:47.385Z,45
2018-07-23T09:05:07.539Z,45
2018-07-23T09:05:28.543Z,45
2018-07-23T09:05:48.944Z,45
2018-07-23T09:06:09.068Z,45
2018-07-23T09:06:29.219Z,45
2018-07-23T09:06:49.382Z,45
2018-07-23T09:07:09.539Z,45
2018-07-23T09:07:29.705Z,45
2018-07-23T09:07:49.839Z,45
2018-07-23T09:08:10.014Z,45
2018-07-23T09:08:30.208Z,45
2018-07-23T09:08:50.460Z,45
2018-07-23T09:09:10.723Z,45
2018-07-23T09:09:30.849Z,45
2018-07-23T09:09:51.010Z,45
2018-07-23T09:10:11.156Z,45
2018-07-23T09:10:31.341Z,45
2018-07-23T09:10:51.482Z,45
2018-07-23T09:11:11.611Z,45
2018-07-23T09:11:31.768Z,45
2018-07-23T09:11:51.916Z,45
2018-07-23T09:12:12.054Z,45
2018-07-23T09:12:32.220Z,45
2018-07-23T09:12:52.390Z,45
2018-07-23T09:13:13.442Z,45
2018-07-23T09:13:33.613Z,45
2018-07-23T09:13:53.793Z,45
2018-07-23T09:14:13.968Z,45
2018-07-23T09:14:34.155Z,45
2018-07-23T09:14:54.303Z,40
2018-07-23T09:15:14.463Z,45
2018-07-23T09:15:34.621Z,45
2018-07-23T09:15:54.796Z,45
2018-07-23T09:16:14.953Z,45
2018-07-23T09:16:35.099Z,40
2018-07-23T09:16:55.254Z,40
2018-07-23T09:17:15.437Z,35
2018-07-23T09:17:35.632Z,45
2018-07-23T09:17:55.769Z,45
2018-07-23T09:18:15.916Z,45
2018-07-23T09:18:36.081Z,45
2018-07-23T09:18:56.260Z,45
2018-07-23T09:19:16.448Z,45
2018-07-23T09:19:36.610Z,45
2018-07-23T09:19:56.767Z,45
2018-07-23T09:20:16.934Z,45
2018-07-23T09:20:37.098Z,45
2018-07-23T09:20:57.256Z,45
2018-07-23T09:21:17.451Z,45
2018-07-23T09:21:37.615Z,45
2018-07-23T09:21:57.775Z,45
2018-07-23T09:22:17.954Z,45
2018-07-23T09:22:38.123Z,45
2018-07-23T09:22:58.291Z,45
2018-07-23T09:23:18.442Z,45
2018-07-23T09:23:38.591Z,45
2018-07-23T09:23:58.815Z,45
2018-07-23T09:24:18.952Z,45
2018-07-23T09:24:39.112Z,45
2018-07-23T09:24:59.284Z,45
2018-07-23T09:25:19.449Z,45
2018-07-23T09:25:39.615Z,45
2018-07-23T09:25:59.828Z,45
2018-07-23T09:26:19.986Z,45
2018-07-23T09:26:40.150Z,45
2018-07-23T09:27:00.295Z,45
2018-07-23T09:27:20.480Z,45
2018-07-23T09:27:40.672Z,45
2018-07-23T09:28:00.848Z,45
2018-07-23T09:28:20.992Z,45
2018-07-23T09:28:41.102Z,45
2018-07-23T09:29:01.259Z,45
2018-07-23T09:29:21.417Z,45
2018-07-23T09:29:41.589Z,45
2018-07-23T09:30:01.757Z,45
2018-07-23T09:30:21.896Z,45
2018-07-23T09:30:42.067Z,45
2018-07-23T09:31:02.291Z,45
2018-07-23T09:31:22.371Z,45
2018-07-23T09:31:42.546Z,45
2018-07-23T09:32:02.716Z,45
2018-07-23T09:32:22.880Z,45
2018-07-23T09:32:43.050Z,45
2018-07-23T09:33:03.204Z,50
2018-07-23T09:33:23.357Z,50
2018-07-23T09:33:43.522Z,50
2018-07-23T09:34:03.676Z,50
2018-07-23T09:34:23.853Z,50
2018-07-23T09:34:44.018Z,50
2018-07-23T09:35:04.162Z,50
2018-07-23T09:35:24.324Z,50
2018-07-23T09:35:44.468Z,50
2018-07-23T09:36:04.671Z,50
2018-07-23T09:36:24.826Z,50
2018-07-23T09:36:44.982Z,50
2018-07-23T09:37:05.158Z,50
2018-07-23T09:37:25.377Z,50
2018-07-23T09:37:45.541Z,50
2018-07-23T09:38:05.708Z,50
2018-07-23T09:38:25.903Z,50
2018-07-23T09:38:46.034Z,45
2018-07-23T09:39:06.199Z,45
2018-07-23T09:39:26.377Z,45
2018-07-23T09:39:46.521Z,45
2018-07-23T09:40:06.683Z,45
2018-07-23T09:40:26.830Z,45
2018-07-23T09:40:46.980Z,45
2018-07-23T09:41:07.140Z,45
2018-07-23T09:41:27.308Z,45
2018-07-23T09:41:47.499Z,45
2018-07-23T09:42:07.653Z,35
2018-07-23T09:42:27.791Z,45
2018-07-23T09:42:47.945Z,35
2018-07-23T09:43:08.125Z,35
2018-07-23T09:43:28.313Z,35
2018-07-23T09:43:48.466Z,35
2018-07-23T09:44:08.639Z,35
2018-07-23T09:44:28.785Z,35
2018-07-23T09:44:48.916Z,45
2018-07-23T09:45:09.076Z,50
2018-07-23T09:45:29.291Z,50
2018-07-23T09:45:49.446Z,50
2018-07-23T09:46:09.575Z,50
2018-07-23T09:46:29.720Z,50
2018-07-23T09:46:49.867Z,55
2018-07-23T09:47:10.026Z,55
2018-07-23T09:47:30.174Z,55
2018-07-23T09:47:50.331Z,55
2018-07-23T09:48:10.473Z,55
2018-07-23T09:48:30.653Z,55
2018-07-23T09:48:50.813Z,60
2018-07-23T09:49:10.979Z,60
2018-07-23T09:49:31.120Z,60
2018-07-23T09:49:51.276Z,55
2018-07-23T09:50:11.435Z,55
2018-07-23T09:50:31.585Z,55
2018-07-23T09:50:51.731Z,55
2018-07-23T09:51:11.883Z,55
2018-07-23T09:51:32.011Z,55
2018-07-23T09:51:52.224Z,50
2018-07-23T09:52:12.393Z,50
2018-07-23T09:52:32.535Z,50
2018-07-23T09:52:52.685Z,55
2018-07-23T09:53:12.856Z,50
2018-07-23T09:53:33.008Z,50
2018-07-23T09:53:53.186Z,50
2018-07-23T09:54:13.345Z,45
2018-07-23T09:54:33.510Z,50
2018-07-23T09:54:53.672Z,50
2018-07-23T09:55:13.839Z,45
2018-07-23T09:55:34.007Z,45
2018-07-23T09:55:54.150Z,45
2018-07-23T09:56:14.280Z,35
2018-07-23T09:56:34.466Z,30
2018-07-23T09:56:54.616Z,30
2018-07-23T09:57:14.778Z,35
2018-07-23T09:57:35.279Z,35
2018-07-23T09:57:55.432Z,45
2018-07-23T09:58:15.620Z,35
2018-07-23T09:58:35.792Z,30
2018-07-23T09:58:55.964Z,35
2018-07-23T09:59:16.124Z,35
2018-07-23T09:59:36.662Z,40
2018-07-23T09:59:56.434Z,35
2018-07-23T10:00:16.587Z,40
2018-07-23T10:00:36.739Z,45
2018-07-23T10:00:56.920Z,50
2018-07-23T10:01:17.076Z,50
2018-07-23T10:01:37.226Z,50
2018-07-23T10:01:57.402Z,50
2018-07-23T10:02:17.545Z,50
2018-07-23T10:02:37.698Z,50
2018-07-23T10:03:17.668Z,50
2018-07-23T10:03:38.159Z,50
2018-07-23T10:03:58.224Z,50
2018-07-23T10:04:18.394Z,55
2018-07-23T10:04:38.546Z,55
2018-07-23T10:04:58.740Z,55
2018-07-23T10:05:18.910Z,55
2018-07-23T10:05:39.057Z,55
2018-07-23T10:05:59.224Z,60
2018-07-23T10:06:19.381Z,60
2018-07-23T10:06:39.544Z,60
2018-07-23T10:06:59.703Z,60
2018-07-23T10:07:19.855Z,65
2018-07-23T10:07:40.024Z,65
2018-07-23T10:08:00.174Z,65
2018-07-23T10:08:20.323Z,70
2018-07-23T10:08:40.497Z,70
2018-07-23T10:09:00.631Z,70
2018-07-23T10:09:20.822Z,70
2018-07-23T10:09:40.987Z,70
2018-07-23T10:10:01.142Z,70
2018-07-23T10:10:21.311Z,65
2018-07-23T10:10:41.498Z,65
2018-07-23T10:11:01.721Z,65
2018-07-23T10:11:21.892Z,65
2018-07-23T10:11:42.097Z,65
2018-07-23T10:12:02.242Z,65
2018-07-23T10:12:22.389Z,65
2018-07-23T10:12:42.569Z,65
2018-07-23T10:13:02.725Z,65
2018-07-23T10:13:22.889Z,65
2018-07-23T10:13:43.028Z,65
2018-07-23T10:14:03.177Z,65
2018-07-23T10:14:23.358Z,65
2018-07-23T10:14:43.522Z,65
2018-07-23T10:15:03.688Z,70
2018-07-23T10:15:23.846Z,70
2018-07-23T10:15:44.009Z,70
2018-07-23T10:16:04.173Z,70
2018-07-23T10:16:24.329Z,70
2018-07-23T10:16:44.516Z,70
2018-07-23T10:17:04.687Z,70
2018-07-23T10:17:24.860Z,70
2018-07-23T10:17:45.043Z,70